RDT weather

Richard Toll Airport
Richard Toll, Saint-Louis Region, Senegal

Public forecast

Using degrees Celsius for public forecast. Weather courtesy of forecast.io.

Closest aviation weather report (METAR) to Richard Toll Airport

Closest report is Podor Airport, 42.1 nm (77.9 km) ENE. Retrieved 2020/05/31 03:00 UTC (25 minutes ago):

GOSP 310300Z 28004KT CAVOK 26/17 Q1009

Closest aviation forecast (TAF) to Richard Toll Airport

Closest forecast is Saint Louis Airport, 52.2 nm (96.7 km) WSW. Retrieved 2020-05-31 00:51 UTC (3 hours ago):

TAF GOSS 302330Z 3100/3124 32008KT CAVOK